createdAt,value
2022-10-09T00:01:21.050Z,6.00
2022-10-09T00:04:09.162Z,5.70
2022-10-09T00:06:43.692Z,5.70
2022-10-09T00:09:13.607Z,5.60
2022-10-09T00:12:07.143Z,5.60
2022-10-09T00:14:36.797Z,5.60
2022-10-09T00:17:09.707Z,5.60
2022-10-09T00:19:39.417Z,5.60
2022-10-09T00:22:14.246Z,5.50
2022-10-09T00:24:47.923Z,5.50
2022-10-09T00:27:23.599Z,5.50
2022-10-09T00:29:55.636Z,5.40
2022-10-09T00:32:30.933Z,5.40
2022-10-09T00:35:02.999Z,5.40
2022-10-09T00:37:35.447Z,5.40
2022-10-09T00:40:42.135Z,5.30
2022-10-09T00:43:19.486Z,5.30
2022-10-09T00:46:10.330Z,5.40
2022-10-09T00:48:43.166Z,5.40
2022-10-09T00:54:19.934Z,5.30
2022-10-09T01:00:45.030Z,5.50
2022-10-09T01:03:19.919Z,5.60
2022-10-09T01:06:11.906Z,5.50
2022-10-09T01:09:45.941Z,5.50
2022-10-09T01:12:55.223Z,5.40
2022-10-09T01:15:26.621Z,5.40
2022-10-09T01:18:31.052Z,5.40
2022-10-09T01:21:10.910Z,5.40
2022-10-09T01:24:03.613Z,5.40
2022-10-09T01:27:26.829Z,5.40
2022-10-09T01:30:31.980Z,5.40
2022-10-09T01:33:01.440Z,5.50
2022-10-09T01:35:34.093Z,5.40
2022-10-09T01:38:11.950Z,5.30
2022-10-09T01:40:59.538Z,5.20
2022-10-09T01:44:07.978Z,5.10
2022-10-09T01:47:08.717Z,5.00
2022-10-09T01:50:17.333Z,4.90
2022-10-09T01:53:24.208Z,4.90
2022-10-09T01:59:30.867Z,4.90
2022-10-09T02:02:15.102Z,4.90
2022-10-09T02:04:45.865Z,4.90
2022-10-09T02:07:17.471Z,4.80
2022-10-09T02:09:48.030Z,4.80
2022-10-09T02:12:19.511Z,4.80
2022-10-09T02:14:56.044Z,4.80
2022-10-09T02:17:30.367Z,4.60
2022-10-09T02:20:03.230Z,4.50
2022-10-09T02:22:35.719Z,4.50
2022-10-09T02:25:09.898Z,4.40
2022-10-09T02:27:44.419Z,4.30
2022-10-09T03:58:27.352Z,3.40
2022-10-09T04:00:57.659Z,3.40
2022-10-09T04:03:27.581Z,3.40
2022-10-09T04:05:57.867Z,3.40
2022-10-09T04:08:27.006Z,3.40
2022-10-09T04:11:00.632Z,3.30
2022-10-09T04:13:29.404Z,3.30
2022-10-09T04:15:59.395Z,3.40
2022-10-09T04:18:27.975Z,3.30
2022-10-09T04:20:57.178Z,3.30
2022-10-09T04:23:28.650Z,3.20
2022-10-09T04:25:58.483Z,3.20
2022-10-09T04:28:27.588Z,3.20
2022-10-09T04:30:57.504Z,3.20
2022-10-09T04:33:28.058Z,3.20
2022-10-09T04:35:57.986Z,3.20
2022-10-09T04:38:26.653Z,3.10
2022-10-09T04:40:58.262Z,3.10
2022-10-09T04:43:26.829Z,3.20
2022-10-09T04:45:55.196Z,3.20
2022-10-09T04:48:23.611Z,3.20
2022-10-09T04:50:53.747Z,3.20
2022-10-09T04:53:22.830Z,3.20
2022-10-09T04:55:51.589Z,3.20
2022-10-09T04:58:20.283Z,3.20
2022-10-09T05:00:49.483Z,3.20
2022-10-09T05:03:18.327Z,3.10
2022-10-09T05:05:47.056Z,3.10
2022-10-09T05:08:18.664Z,3.10
2022-10-09T05:10:47.493Z,3.10
2022-10-09T05:13:16.256Z,3.10
2022-10-09T05:15:44.837Z,3.00
2022-10-09T05:18:14.453Z,3.00
2022-10-09T05:20:43.068Z,3.00
2022-10-09T05:23:14.725Z,3.00
2022-10-09T05:25:44.908Z,3.00
2022-10-09T05:28:13.527Z,2.90
2022-10-09T05:30:42.490Z,2.90
2022-10-09T05:33:11.363Z,2.80
2022-10-09T05:35:39.943Z,2.90
2022-10-09T05:38:08.675Z,2.90
2022-10-09T05:40:37.206Z,2.90
2022-10-09T05:43:07.298Z,2.90
2022-10-09T05:45:36.107Z,2.90
2022-10-09T05:48:04.815Z,2.90
2022-10-09T05:50:33.363Z,2.90
2022-10-09T05:53:02.420Z,2.90
2022-10-09T05:55:30.981Z,3.00
2022-10-09T05:57:59.509Z,3.10
2022-10-09T06:00:29.470Z,3.10
2022-10-09T06:02:57.985Z,3.10
2022-10-09T06:05:26.476Z,3.10
2022-10-09T06:07:54.815Z,3.30
2022-10-09T06:10:23.332Z,3.20
2022-10-09T06:12:51.840Z,3.30
2022-10-09T06:15:20.134Z,3.40
2022-10-09T06:17:49.881Z,3.40
2022-10-09T06:20:18.176Z,3.50
2022-10-09T06:22:47.317Z,3.50
2022-10-09T06:25:16.282Z,3.60
2022-10-09T06:27:44.846Z,3.70
2022-10-09T06:30:13.947Z,3.70
2022-10-09T06:32:42.290Z,3.90
2022-10-09T06:35:12.534Z,4.00
2022-10-09T06:37:41.282Z,4.20
2022-10-09T06:40:10.657Z,4.30
2022-10-09T06:42:39.540Z,4.40
2022-10-09T06:45:09.627Z,4.60
2022-10-09T06:47:40.181Z,4.80
2022-10-09T06:50:10.355Z,5.10
2022-10-09T06:52:42.127Z,5.30
2022-10-09T06:55:11.092Z,5.50
2022-10-09T06:57:39.712Z,5.70
2022-10-09T07:00:14.388Z,6.10
2022-10-09T07:06:09.820Z,8.00
2022-10-09T07:08:39.809Z,8.80
2022-10-09T07:11:11.938Z,9.60
2022-10-09T07:13:39.886Z,10.60
2022-10-09T07:16:07.816Z,11.60
2022-10-09T07:18:36.219Z,12.20
2022-10-09T07:21:04.565Z,12.80
2022-10-09T07:23:33.324Z,13.50
2022-10-09T07:26:03.111Z,13.70
2022-10-09T07:28:31.208Z,14.10
2022-10-09T07:30:59.217Z,14.30
2022-10-09T07:33:27.129Z,14.50
2022-10-09T07:35:55.515Z,14.80
2022-10-09T07:38:24.491Z,15.00
2022-10-09T07:40:52.812Z,15.30
2022-10-09T07:43:22.537Z,15.60
2022-10-09T07:45:50.463Z,15.80
2022-10-09T07:48:18.476Z,15.90
2022-10-09T07:50:46.411Z,15.70
2022-10-09T07:53:14.318Z,15.50
2022-10-09T07:55:45.651Z,15.10
2022-10-09T07:58:13.530Z,15.50
2022-10-09T08:00:42.882Z,15.70
2022-10-09T08:03:11.198Z,16.30
2022-10-09T08:05:39.201Z,16.60
2022-10-09T08:08:07.110Z,17.20
2022-10-09T08:10:35.117Z,17.60
2022-10-09T08:13:03.000Z,18.10
2022-10-09T08:15:30.908Z,18.40
2022-10-09T08:18:00.186Z,18.20
2022-10-09T08:20:28.079Z,18.00
2022-10-09T08:22:55.959Z,18.00
2022-10-09T08:25:23.836Z,18.30
2022-10-09T08:27:53.211Z,18.40
2022-10-09T08:30:21.451Z,18.70
2022-10-09T08:32:49.641Z,19.00
2022-10-09T08:35:19.132Z,18.70
2022-10-09T08:37:47.014Z,18.70
2022-10-09T08:40:17.143Z,18.60
2022-10-09T08:42:48.423Z,18.50
2022-10-09T08:45:16.641Z,19.10
2022-10-09T08:47:46.363Z,19.30
2022-10-09T08:50:16.499Z,19.20
2022-10-09T08:52:50.171Z,19.20
2022-10-09T08:55:20.308Z,19.50
2022-10-09T08:57:51.407Z,19.80
2022-10-09T09:00:20.649Z,19.70
2022-10-09T09:03:09.314Z,19.90
2022-10-09T09:05:41.216Z,20.20
2022-10-09T09:08:17.065Z,20.50
2022-10-09T09:10:51.246Z,20.60
2022-10-09T09:13:23.712Z,20.60
2022-10-09T09:15:54.115Z,21.30
2022-10-09T09:18:27.619Z,22.00
2022-10-09T09:20:56.203Z,22.50
2022-10-09T09:23:27.998Z,22.50
2022-10-09T09:25:56.312Z,22.80
2022-10-09T09:28:26.344Z,23.10
2022-10-09T09:30:58.037Z,22.90
2022-10-09T09:33:35.858Z,23.00
2022-10-09T09:36:08.366Z,22.70
2022-10-09T09:38:53.710Z,22.40
2022-10-09T09:41:26.204Z,21.70
2022-10-09T09:43:54.088Z,20.30
2022-10-09T09:46:24.139Z,19.30
2022-10-09T09:48:52.139Z,19.10
2022-10-09T09:51:28.538Z,19.30
2022-10-09T09:53:59.742Z,19.40
2022-10-09T09:56:53.368Z,19.40
2022-10-09T09:59:32.878Z,19.30
2022-10-09T10:02:01.534Z,19.80
2022-10-09T10:04:29.507Z,20.30
2022-10-09T10:06:57.415Z,20.50
2022-10-09T10:09:27.147Z,20.10
2022-10-09T10:11:56.667Z,19.60
2022-10-09T10:14:24.832Z,19.70
2022-10-09T10:16:53.798Z,20.20
2022-10-09T10:19:22.507Z,20.50
2022-10-09T10:21:50.665Z,21.20
2022-10-09T10:24:21.259Z,21.00
2022-10-09T10:26:53.276Z,20.90
2022-10-09T10:29:22.752Z,20.40
2022-10-09T10:31:54.639Z,19.00
2022-10-09T10:34:24.455Z,19.10
2022-10-09T10:37:01.058Z,19.10
2022-10-09T10:39:35.275Z,18.90
2022-10-09T10:42:07.403Z,18.40
2022-10-09T10:44:40.213Z,17.30
2022-10-09T10:47:11.967Z,16.30
2022-10-09T10:49:39.957Z,15.90
2022-10-09T10:52:14.027Z,16.40
2022-10-09T10:54:43.691Z,17.40
2022-10-09T10:57:15.809Z,18.40
2022-10-09T10:59:47.088Z,18.40
2022-10-09T11:02:33.154Z,19.00
2022-10-09T11:05:07.157Z,19.90
2022-10-09T11:07:41.809Z,20.40
2022-10-09T11:10:16.976Z,20.20
2022-10-09T11:12:49.316Z,19.90
2022-10-09T11:15:21.287Z,19.60
2022-10-09T11:17:55.715Z,18.70
2022-10-09T11:20:39.830Z,18.20
2022-10-09T11:23:12.678Z,18.50
2022-10-09T11:25:44.628Z,18.80
2022-10-09T11:28:16.126Z,19.00
2022-10-09T11:30:46.221Z,18.80
2022-10-09T11:33:28.821Z,18.60
2022-10-09T11:35:59.015Z,18.30
2022-10-09T11:38:29.693Z,17.70
2022-10-09T11:40:59.509Z,17.50
2022-10-09T11:43:40.966Z,17.20
2022-10-09T11:46:11.436Z,17.00
2022-10-09T11:48:43.724Z,16.60
2022-10-09T11:51:16.128Z,16.30
2022-10-09T11:53:45.900Z,15.90
2022-10-09T11:56:21.715Z,15.60
2022-10-09T11:58:58.756Z,15.40
2022-10-09T12:01:29.660Z,15.30
2022-10-09T12:04:01.496Z,15.30
2022-10-09T12:06:29.832Z,15.10
2022-10-09T12:08:58.768Z,15.00
2022-10-09T12:11:27.286Z,14.90
2022-10-09T12:13:55.861Z,14.90
2022-10-09T12:16:39.148Z,14.80
2022-10-09T12:19:13.309Z,14.60
2022-10-09T12:21:46.304Z,14.60
2022-10-09T12:24:16.803Z,14.60
2022-10-09T12:26:45.182Z,14.50
2022-10-09T12:29:17.869Z,14.50
2022-10-09T12:31:48.107Z,14.50
2022-10-09T12:34:18.795Z,14.40
2022-10-09T12:36:46.745Z,14.40
2022-10-09T12:39:15.777Z,14.40
2022-10-09T12:41:45.698Z,14.40
2022-10-09T12:44:19.016Z,14.30
2022-10-09T12:46:48.430Z,14.30
2022-10-09T12:49:19.993Z,14.30
2022-10-09T12:51:53.802Z,14.30
2022-10-09T12:54:25.070Z,14.30
2022-10-09T12:56:53.601Z,14.30
2022-10-09T12:59:21.955Z,14.30
2022-10-09T13:01:53.649Z,14.20
2022-10-09T13:04:29.271Z,14.10
2022-10-09T13:06:58.056Z,14.10
2022-10-09T13:09:27.367Z,14.10
2022-10-09T13:11:57.276Z,14.10
2022-10-09T13:14:26.749Z,14.10
2022-10-09T13:16:56.134Z,14.10
2022-10-09T13:19:25.600Z,14.00
2022-10-09T13:22:07.321Z,14.00
2022-10-09T13:28:24.143Z,13.90
2022-10-09T13:30:52.555Z,13.80
2022-10-09T13:33:22.280Z,13.80
2022-10-09T13:40:01.018Z,13.70
2022-10-09T13:42:31.331Z,13.60
2022-10-09T13:44:59.442Z,13.50
2022-10-09T13:47:27.439Z,13.40
2022-10-09T13:49:57.109Z,13.40
2022-10-09T13:52:25.149Z,13.30
2022-10-09T13:54:53.241Z,13.30
2022-10-09T13:57:21.205Z,13.30
2022-10-09T13:59:49.197Z,13.20
2022-10-09T14:02:17.297Z,13.10
2022-10-09T14:04:45.321Z,13.10
2022-10-09T14:07:14.784Z,13.10
2022-10-09T14:09:42.802Z,13.00
2022-10-09T14:12:11.148Z,13.00
2022-10-09T14:14:39.288Z,13.00
2022-10-09T14:17:07.296Z,13.00
2022-10-09T14:19:35.445Z,13.00
2022-10-09T14:22:03.420Z,13.00
2022-10-09T14:24:32.749Z,13.00
2022-10-09T14:27:00.765Z,13.00
2022-10-09T14:29:28.732Z,13.00
2022-10-09T14:31:56.704Z,13.00
2022-10-09T14:34:24.690Z,12.90
2022-10-09T14:36:52.653Z,12.90
2022-10-09T14:39:21.085Z,12.90
2022-10-09T14:41:50.549Z,12.90
2022-10-09T14:44:18.541Z,12.90
2022-10-09T14:46:46.539Z,12.90
2022-10-09T14:49:14.605Z,12.90
2022-10-09T14:51:42.821Z,12.80
2022-10-09T14:54:12.261Z,12.80
2022-10-09T14:56:40.553Z,12.70
2022-10-09T14:59:09.965Z,12.70
2022-10-09T15:01:38.178Z,12.70
2022-10-09T15:04:06.596Z,12.60
2022-10-09T15:06:34.818Z,12.70
2022-10-09T15:09:05.695Z,12.60
2022-10-09T15:11:34.281Z,12.50
2022-10-09T15:14:02.282Z,12.60
2022-10-09T15:16:31.704Z,12.50
2022-10-09T15:18:59.737Z,12.50
2022-10-09T15:21:29.041Z,12.30
2022-10-09T15:23:58.306Z,12.20
2022-10-09T15:26:26.785Z,12.10
2022-10-09T15:28:54.766Z,11.90
2022-10-09T15:31:25.722Z,11.80
2022-10-09T15:33:56.065Z,11.70
2022-10-09T15:36:24.109Z,11.60
2022-10-09T15:38:52.133Z,11.50
2022-10-09T15:41:20.912Z,11.40
2022-10-09T15:43:49.271Z,11.20
2022-10-09T15:46:17.358Z,11.10
2022-10-09T15:48:45.526Z,11.00
2022-10-09T15:51:15.013Z,10.90
2022-10-09T15:53:44.178Z,10.70
2022-10-09T15:56:13.636Z,10.60
2022-10-09T15:58:41.730Z,10.40
2022-10-09T16:01:10.265Z,10.30
2022-10-09T16:03:38.510Z,10.20
2022-10-09T16:06:09.936Z,10.10
2022-10-09T16:08:39.351Z,10.00
2022-10-09T16:13:42.856Z,9.70
2022-10-09T16:16:11.538Z,9.60
2022-10-09T16:18:39.634Z,9.50
2022-10-09T16:21:08.168Z,9.30
2022-10-09T16:23:36.590Z,9.20
2022-10-09T16:26:06.261Z,9.10
2022-10-09T16:28:34.782Z,8.90
2022-10-09T16:31:03.217Z,8.80
2022-10-09T16:33:31.185Z,8.60
2022-10-09T16:36:09.153Z,8.50
2022-10-09T16:38:38.119Z,8.30
2022-10-09T16:41:10.195Z,8.20
2022-10-09T16:43:38.663Z,8.10
2022-10-09T16:46:09.596Z,8.00
2022-10-09T16:48:37.586Z,7.90
2022-10-09T16:51:08.633Z,7.80
2022-10-09T16:53:36.617Z,7.70
2022-10-09T16:56:10.072Z,7.50
2022-10-09T16:58:38.197Z,7.40
2022-10-09T17:01:09.913Z,7.30
2022-10-09T17:03:40.558Z,7.20
2022-10-09T17:06:09.662Z,7.20
2022-10-09T17:08:37.789Z,7.10
2022-10-09T17:11:07.470Z,7.10
2022-10-09T17:13:36.922Z,7.00
2022-10-09T17:16:08.414Z,7.00
2022-10-09T17:18:37.003Z,6.90
2022-10-09T17:21:05.748Z,6.80
2022-10-09T17:23:34.816Z,6.80
2022-10-09T17:26:06.214Z,6.70
2022-10-09T17:28:35.458Z,6.60
2022-10-09T17:31:07.228Z,6.60
2022-10-09T17:33:39.363Z,6.60
2022-10-09T17:36:08.181Z,6.60
2022-10-09T17:38:36.348Z,6.60
2022-10-09T17:41:04.964Z,6.50
2022-10-09T17:43:33.153Z,6.50
2022-10-09T17:46:01.795Z,6.50
2022-10-09T17:48:33.125Z,6.60
2022-10-09T17:51:01.742Z,6.60
2022-10-09T17:53:30.149Z,6.80
2022-10-09T17:55:58.971Z,6.90
2022-10-09T17:58:27.122Z,7.00
2022-10-09T18:00:55.335Z,7.00
2022-10-09T18:03:23.544Z,7.00
2022-10-09T18:05:53.200Z,6.90
2022-10-09T18:08:22.396Z,6.80
2022-10-09T18:10:58.559Z,6.70
2022-10-09T18:13:26.789Z,6.60
2022-10-09T18:15:55.118Z,6.40
2022-10-09T18:18:23.351Z,6.30
2022-10-09T18:20:51.650Z,6.20
2022-10-09T18:23:22.871Z,6.20
2022-10-09T18:25:51.555Z,6.20
2022-10-09T18:28:20.205Z,6.20
2022-10-09T18:30:48.458Z,6.10
2022-10-09T18:33:18.582Z,6.10
2022-10-09T18:35:52.883Z,6.10
2022-10-09T18:38:22.864Z,6.10
2022-10-09T18:40:51.408Z,6.20
2022-10-09T18:43:20.137Z,6.30
2022-10-09T18:45:49.166Z,6.30
2022-10-09T18:48:19.129Z,6.40
2022-10-09T18:50:47.501Z,6.60
2022-10-09T18:53:15.776Z,6.80
2022-10-09T18:55:45.966Z,7.00
2022-10-09T18:58:14.170Z,7.10
2022-10-09T19:00:43.503Z,7.20
2022-10-09T19:03:11.692Z,7.30
2022-10-09T19:05:39.865Z,7.50
2022-10-09T19:08:08.042Z,7.60
2022-10-09T19:10:36.152Z,7.90
2022-10-09T19:13:05.781Z,8.00
2022-10-09T19:15:33.922Z,8.10
2022-10-09T19:18:02.133Z,8.20
2022-10-09T19:20:31.703Z,8.20
2022-10-09T19:23:00.373Z,8.30
2022-10-09T19:25:28.454Z,8.30
2022-10-09T19:27:57.782Z,8.20
2022-10-09T19:30:27.478Z,8.20
2022-10-09T19:32:56.282Z,8.20
2022-10-09T19:35:24.303Z,8.10
2022-10-09T19:37:52.777Z,8.10
2022-10-09T19:40:21.294Z,8.00
2022-10-09T19:42:49.375Z,7.90
2022-10-09T19:45:17.597Z,7.90
2022-10-09T19:47:50.008Z,7.80
2022-10-09T19:50:20.322Z,7.80
2022-10-09T19:52:48.402Z,7.70
2022-10-09T19:55:16.577Z,7.60
2022-10-09T19:57:44.727Z,7.40
2022-10-09T20:00:13.628Z,7.30
2022-10-09T20:02:42.204Z,7.10
2022-10-09T20:05:11.746Z,6.80
2022-10-09T20:07:39.750Z,6.50
2022-10-09T20:10:08.449Z,6.20
2022-10-09T20:12:37.205Z,5.90
2022-10-09T20:15:06.284Z,5.70
2022-10-09T20:17:37.273Z,5.60
2022-10-09T20:20:12.173Z,5.40
2022-10-09T20:22:47.711Z,5.30
2022-10-09T20:25:17.156Z,5.20
2022-10-09T20:27:49.401Z,5.20
2022-10-09T20:30:18.047Z,5.10
2022-10-09T20:32:46.827Z,5.00
2022-10-09T20:35:27.057Z,4.90
2022-10-09T20:37:59.354Z,4.90
2022-10-09T20:40:28.506Z,4.80
2022-10-09T20:42:57.050Z,4.80
2022-10-09T20:45:25.876Z,4.80
2022-10-09T20:47:54.383Z,4.80
2022-10-09T20:50:28.434Z,4.80
2022-10-09T20:53:02.923Z,5.10
2022-10-09T20:55:41.489Z,5.50
2022-10-09T20:58:10.310Z,5.60
2022-10-09T21:00:46.408Z,5.40
2022-10-09T21:03:22.998Z,5.30
2022-10-09T21:05:58.909Z,5.30
2022-10-09T21:08:28.742Z,5.20
2022-10-09T21:11:03.310Z,5.10
2022-10-09T21:13:39.551Z,5.10
2022-10-09T21:16:17.627Z,5.00
2022-10-09T21:18:49.557Z,4.90
2022-10-09T21:21:19.338Z,4.80
2022-10-09T21:23:53.035Z,4.80
2022-10-09T21:26:22.684Z,4.70
2022-10-09T21:28:59.107Z,4.70
2022-10-09T21:31:32.091Z,4.70
2022-10-09T21:34:02.928Z,4.70
2022-10-09T21:36:36.386Z,4.70
2022-10-09T21:39:07.168Z,4.70
2022-10-09T21:41:36.130Z,4.60
2022-10-09T21:44:04.937Z,4.60
2022-10-09T21:46:33.742Z,4.60
2022-10-09T21:49:07.346Z,4.50
2022-10-09T21:51:36.441Z,4.50
2022-10-09T21:54:04.930Z,4.40
2022-10-09T21:56:34.670Z,4.40
2022-10-09T21:59:05.911Z,4.50
2022-10-09T22:01:34.716Z,4.50
2022-10-09T22:04:03.077Z,4.40
2022-10-09T22:06:31.357Z,4.40
2022-10-09T22:08:59.938Z,4.40
2022-10-09T22:11:28.464Z,4.30
2022-10-09T22:14:01.204Z,4.20
2022-10-09T22:16:29.844Z,4.20
2022-10-09T22:18:58.413Z,4.20
2022-10-09T22:21:26.985Z,4.20
2022-10-09T22:23:55.804Z,4.20
2022-10-09T22:26:24.546Z,4.20
2022-10-09T22:28:53.483Z,4.10
2022-10-09T22:31:24.409Z,4.30
2022-10-09T22:33:53.684Z,4.30
2022-10-09T22:36:24.239Z,4.50
2022-10-09T23:00:46.466Z,6.20
2022-10-09T23:20:18.253Z,4.80
2022-10-09T23:23:38.470Z,4.60
